createdAt,value
2022-09-04T00:01:17.449Z,17.47
2022-09-04T00:03:34.819Z,17.44
2022-09-04T00:05:51.691Z,17.44
2022-09-04T00:08:08.670Z,17.43
2022-09-04T00:10:26.980Z,17.44
2022-09-04T00:12:44.244Z,17.48
2022-09-04T00:15:01.500Z,17.49
2022-09-04T00:17:18.835Z,17.49
2022-09-04T00:19:36.877Z,17.46
2022-09-04T00:21:54.182Z,17.44
2022-09-04T00:24:11.205Z,17.42
2022-09-04T00:26:28.550Z,17.41
2022-09-04T00:28:45.859Z,17.41
2022-09-04T00:31:03.890Z,17.41
2022-09-04T00:33:20.987Z,17.42
2022-09-04T00:35:38.027Z,17.43
2022-09-04T00:37:56.977Z,17.43
2022-09-04T00:40:14.108Z,17.44
2022-09-04T00:42:31.388Z,17.42
2022-09-04T00:44:48.694Z,17.46
2022-09-04T00:47:08.875Z,17.50
2022-09-04T00:49:25.901Z,17.48
2022-09-04T00:51:42.897Z,17.44
2022-09-04T00:54:00.001Z,17.46
2022-09-04T00:56:17.301Z,17.48
2022-09-04T01:01:09.045Z,17.47
2022-09-04T01:03:27.508Z,17.48
2022-09-04T01:05:46.427Z,17.51
2022-09-04T01:08:03.713Z,17.51
2022-09-04T01:10:20.687Z,17.53
2022-09-04T01:12:37.627Z,17.50
2022-09-04T01:14:55.545Z,17.48
2022-09-04T01:17:12.652Z,17.47
2022-09-04T01:19:30.356Z,17.52
2022-09-04T01:21:47.336Z,17.49
2022-09-04T01:24:04.311Z,17.49
2022-09-04T01:26:22.688Z,17.51
2022-09-04T01:28:39.696Z,17.49
2022-09-04T01:30:57.126Z,17.52
2022-09-04T01:33:14.509Z,17.56
2022-09-04T01:35:31.475Z,17.51
2022-09-04T01:37:49.502Z,17.51
2022-09-04T01:40:06.871Z,17.49
2022-09-04T01:42:23.970Z,17.50
2022-09-04T01:44:41.053Z,17.51
2022-09-04T01:46:59.054Z,17.50
2022-09-04T01:49:16.027Z,17.52
2022-09-04T01:51:34.324Z,17.53
2022-09-04T01:53:51.221Z,17.54
2022-09-04T01:56:09.641Z,17.56
2022-09-04T01:58:26.648Z,17.60
2022-09-04T02:00:44.072Z,17.55
2022-09-04T02:03:04.414Z,17.55
2022-09-04T02:05:21.352Z,17.54
2022-09-04T02:07:38.410Z,17.53
2022-09-04T02:09:55.445Z,17.53
2022-09-04T02:12:12.518Z,17.54
2022-09-04T02:14:30.649Z,17.50
2022-09-04T02:16:47.672Z,17.50
2022-09-04T02:19:04.781Z,17.50
2022-09-04T02:21:21.811Z,17.55
2022-09-04T02:23:38.728Z,17.54
2022-09-04T02:25:55.750Z,17.56
2022-09-04T02:28:12.797Z,17.52
2022-09-04T02:30:29.841Z,17.49
2022-09-04T02:32:47.127Z,17.44
2022-09-04T02:35:04.975Z,17.35
2022-09-04T02:37:22.237Z,17.38
2022-09-04T02:39:40.060Z,17.33
2022-09-04T02:41:57.341Z,17.30
2022-09-04T02:44:14.375Z,17.31
2022-09-04T02:46:31.831Z,17.26
2022-09-04T02:48:49.172Z,17.20
2022-09-04T02:51:07.536Z,17.29
2022-09-04T02:53:24.806Z,17.24
2022-09-04T02:55:41.875Z,17.22
2022-09-04T02:57:58.970Z,17.19
2022-09-04T03:00:18.216Z,17.16
2022-09-04T03:02:38.136Z,17.12
2022-09-04T03:04:55.424Z,17.11
2022-09-04T03:07:12.433Z,17.09
2022-09-04T03:09:29.472Z,17.04
2022-09-04T03:11:46.637Z,17.07
2022-09-04T03:14:03.927Z,17.03
2022-09-04T03:16:20.887Z,17.02
2022-09-04T03:18:38.168Z,17.01
2022-09-04T03:20:55.106Z,16.99
2022-09-04T03:23:12.379Z,16.98
2022-09-04T03:25:29.337Z,16.96
2022-09-04T03:27:46.667Z,16.98
2022-09-04T03:30:03.571Z,16.97
2022-09-04T03:32:20.497Z,16.99
2022-09-04T03:34:37.595Z,16.99
2022-09-04T03:36:54.827Z,17.01
2022-09-04T03:39:12.088Z,17.01
2022-09-04T03:41:29.153Z,17.04
2022-09-04T03:43:46.424Z,17.03
2022-09-04T03:46:03.362Z,17.01
2022-09-04T03:48:20.421Z,17.01
2022-09-04T03:50:37.514Z,17.03
2022-09-04T03:52:54.612Z,17.10
2022-09-04T03:55:11.566Z,17.08
2022-09-04T03:57:28.866Z,17.06
2022-09-04T03:59:45.962Z,17.13
2022-09-04T04:02:02.901Z,17.11
2022-09-04T04:04:20.110Z,17.12
2022-09-04T04:06:37.378Z,17.13
2022-09-04T04:08:54.450Z,17.13
2022-09-04T04:11:11.751Z,17.13
2022-09-04T04:13:28.662Z,17.14
2022-09-04T04:15:45.764Z,17.10
2022-09-04T04:18:02.854Z,17.09
2022-09-04T04:20:20.102Z,17.10
2022-09-04T04:22:37.493Z,17.11
2022-09-04T04:24:54.832Z,17.12
2022-09-04T04:27:11.928Z,17.14
2022-09-04T04:29:29.189Z,17.10
2022-09-04T04:31:46.987Z,17.06
2022-09-04T04:34:04.393Z,17.03
2022-09-04T04:36:25.236Z,17.04
2022-09-04T04:38:42.366Z,17.05
2022-09-04T04:40:59.298Z,17.06
2022-09-04T04:43:16.610Z,17.07
2022-09-04T04:45:33.659Z,17.06
2022-09-04T04:47:50.592Z,17.03
2022-09-04T04:50:07.570Z,17.03
2022-09-04T04:52:24.603Z,17.01
2022-09-04T04:54:41.615Z,17.03
2022-09-04T04:56:58.925Z,17.00
2022-09-04T04:59:16.197Z,16.99
2022-09-04T05:01:33.189Z,16.99
2022-09-04T05:03:50.328Z,16.98
2022-09-04T05:06:07.257Z,17.02
2022-09-04T05:08:24.705Z,17.04
2022-09-04T05:10:41.802Z,17.01
2022-09-04T05:12:58.754Z,17.00
2022-09-04T05:15:15.731Z,16.96
2022-09-04T05:17:32.956Z,16.98
2022-09-04T05:19:50.937Z,16.99
2022-09-04T05:22:09.393Z,16.96
2022-09-04T05:24:26.322Z,16.95
2022-09-04T05:26:43.258Z,16.93
2022-09-04T05:29:00.520Z,16.95
2022-09-04T05:31:17.607Z,16.97
2022-09-04T05:33:35.665Z,16.94
2022-09-04T05:35:53.165Z,17.01
2022-09-04T05:38:10.849Z,16.99
2022-09-04T05:40:28.161Z,17.01
2022-09-04T05:42:45.089Z,16.97
2022-09-04T05:45:02.019Z,16.98
2022-09-04T05:47:19.053Z,17.06
2022-09-04T05:49:36.079Z,17.08
2022-09-04T05:51:53.151Z,16.99
2022-09-04T05:54:10.192Z,16.98
2022-09-04T05:56:27.220Z,17.01
2022-09-04T05:58:45.436Z,17.02
2022-09-04T06:01:03.636Z,17.06
2022-09-04T06:03:20.583Z,17.10
2022-09-04T06:05:37.945Z,17.14
2022-09-04T06:07:55.244Z,17.17
2022-09-04T06:10:12.502Z,17.18
2022-09-04T06:12:29.454Z,17.23
2022-09-04T06:14:46.353Z,17.30
2022-09-04T06:17:03.432Z,17.33
2022-09-04T06:19:20.499Z,17.37
2022-09-04T06:21:38.749Z,17.49
2022-09-04T06:23:55.779Z,17.51
2022-09-04T06:26:12.793Z,17.57
2022-09-04T06:28:30.053Z,17.66
2022-09-04T06:30:47.335Z,17.66
2022-09-04T06:33:04.444Z,17.67
2022-09-04T06:35:21.497Z,17.70
2022-09-04T06:37:38.774Z,17.78
2022-09-04T06:39:56.138Z,17.85
2022-09-04T06:42:13.683Z,17.87
2022-09-04T06:44:31.865Z,17.91
2022-09-04T06:46:48.977Z,17.89
2022-09-04T06:49:06.157Z,17.91
2022-09-04T06:51:23.393Z,17.89
2022-09-04T06:53:40.467Z,17.90
2022-09-04T06:55:57.454Z,17.96
2022-09-04T06:58:14.535Z,18.00
2022-09-04T07:00:32.870Z,18.05
2022-09-04T07:02:51.159Z,18.09
2022-09-04T07:05:09.660Z,18.01
2022-09-04T07:07:26.697Z,18.06
2022-09-04T07:09:44.684Z,18.12
2022-09-04T07:12:01.999Z,18.23
2022-09-04T07:14:19.241Z,18.35
2022-09-04T07:16:36.562Z,18.38
2022-09-04T07:18:54.412Z,18.37
2022-09-04T07:21:11.429Z,18.42
2022-09-04T07:23:28.554Z,18.44
2022-09-04T07:25:45.584Z,18.51
2022-09-04T07:28:02.601Z,18.48
2022-09-04T07:30:19.505Z,18.59
2022-09-04T07:32:36.589Z,18.77
2022-09-04T07:34:53.505Z,18.73
2022-09-04T07:37:10.449Z,18.76
2022-09-04T07:39:27.543Z,18.79
2022-09-04T07:41:44.592Z,18.86
2022-09-04T07:44:01.866Z,18.94
2022-09-04T07:46:18.944Z,19.01
2022-09-04T07:48:36.044Z,19.07
2022-09-04T07:50:53.080Z,19.05
2022-09-04T07:53:11.383Z,19.07
2022-09-04T07:55:28.523Z,19.08
2022-09-04T07:57:45.468Z,19.18
2022-09-04T08:00:02.487Z,19.15
2022-09-04T08:02:19.832Z,19.15
2022-09-04T08:04:37.227Z,19.22
2022-09-04T08:06:54.361Z,19.23
2022-09-04T08:09:11.344Z,19.29
2022-09-04T08:11:28.261Z,19.35
2022-09-04T08:13:45.632Z,19.43
2022-09-04T08:16:02.984Z,19.49
2022-09-04T08:18:20.139Z,19.52
2022-09-04T08:20:37.454Z,19.62
2022-09-04T08:22:54.406Z,19.64
2022-09-04T08:25:13.322Z,19.67
2022-09-04T08:27:30.624Z,19.63
2022-09-04T08:29:47.855Z,19.65
2022-09-04T08:32:04.823Z,19.69
2022-09-04T08:34:21.798Z,19.68
2022-09-04T08:36:39.127Z,19.83
2022-09-04T08:38:56.420Z,19.95
2022-09-04T08:41:13.466Z,20.05
2022-09-04T08:43:30.484Z,20.16
2022-09-04T08:45:47.899Z,20.28
2022-09-04T08:48:05.223Z,20.34
2022-09-04T08:50:22.166Z,20.29
2022-09-04T08:52:39.889Z,20.38
2022-09-04T08:54:57.206Z,20.50
2022-09-04T08:57:14.554Z,20.75
2022-09-04T08:59:31.494Z,20.97
2022-09-04T09:01:48.720Z,21.16
2022-09-04T09:04:06.054Z,21.32
2022-09-04T09:06:23.148Z,21.52
2022-09-04T09:08:40.158Z,21.39
2022-09-04T09:10:57.223Z,21.52
2022-09-04T09:13:14.199Z,21.65
2022-09-04T09:15:31.202Z,21.77
2022-09-04T09:17:48.240Z,21.94
2022-09-04T09:20:05.439Z,22.37
2022-09-04T09:22:22.547Z,22.39
2022-09-04T09:24:39.819Z,22.45
2022-09-04T09:26:56.806Z,22.62
2022-09-04T09:29:14.144Z,22.87
2022-09-04T09:31:31.484Z,23.05
2022-09-04T09:33:49.600Z,23.09
2022-09-04T09:36:06.943Z,23.26
2022-09-04T09:38:25.220Z,23.48
2022-09-04T09:40:42.161Z,23.62
2022-09-04T09:42:59.074Z,23.61
2022-09-04T09:45:16.445Z,23.83
2022-09-04T09:47:33.680Z,23.93
2022-09-04T09:49:51.917Z,24.14
2022-09-04T09:52:08.872Z,24.19
2022-09-04T09:54:26.156Z,24.26
2022-09-04T09:56:43.121Z,24.42
2022-09-04T09:59:11.023Z,24.61
2022-09-04T10:01:28.081Z,24.74
2022-09-04T10:03:45.048Z,24.89
2022-09-04T10:06:02.479Z,25.04
2022-09-04T10:08:35.439Z,25.04
2022-09-04T10:10:53.388Z,25.31
2022-09-04T10:13:10.396Z,25.30
2022-09-04T10:15:27.366Z,25.51
2022-09-04T10:17:44.692Z,25.66
2022-09-04T10:20:01.658Z,25.83
2022-09-04T10:22:18.552Z,25.94
2022-09-04T10:24:35.587Z,26.02
2022-09-04T10:26:53.534Z,26.11
2022-09-04T10:29:10.609Z,26.17
2022-09-04T10:31:27.688Z,25.95
2022-09-04T10:33:44.716Z,25.87
2022-09-04T10:36:01.652Z,26.09
2022-09-04T10:38:18.626Z,25.99
2022-09-04T10:40:38.432Z,26.00
2022-09-04T10:42:57.914Z,25.93
2022-09-04T10:45:14.966Z,26.00
2022-09-04T10:47:32.042Z,25.89
2022-09-04T10:49:50.005Z,25.65
2022-09-04T10:52:07.123Z,25.42
2022-09-04T10:54:24.426Z,25.07
2022-09-04T10:56:41.410Z,24.90
2022-09-04T10:58:58.758Z,24.84
2022-09-04T11:01:15.881Z,24.72
2022-09-04T11:03:33.044Z,24.65
2022-09-04T11:05:50.161Z,24.58
2022-09-04T11:08:07.500Z,24.58
2022-09-04T11:10:24.775Z,24.75
2022-09-04T11:12:41.787Z,25.12
2022-09-04T11:14:58.756Z,25.54
2022-09-04T11:17:15.718Z,25.82
2022-09-04T11:19:33.382Z,26.23
2022-09-04T11:21:50.338Z,26.68
2022-09-04T11:24:07.435Z,26.71
2022-09-04T11:26:26.056Z,26.60
2022-09-04T11:28:43.330Z,26.55
2022-09-04T11:31:00.614Z,26.40
2022-09-04T11:33:18.030Z,26.07
2022-09-04T11:35:35.106Z,25.87
2022-09-04T11:37:55.801Z,25.76
2022-09-04T11:40:14.624Z,25.54
2022-09-04T11:42:31.917Z,25.50
2022-09-04T11:44:48.989Z,25.55
2022-09-04T11:47:06.021Z,25.62
2022-09-04T11:49:23.635Z,25.68
2022-09-04T11:51:40.658Z,25.72
2022-09-04T11:53:58.005Z,25.88
2022-09-04T11:56:16.005Z,26.35
2022-09-04T11:58:34.427Z,26.59
2022-09-04T12:00:51.839Z,27.00
2022-09-04T12:03:08.891Z,27.27
2022-09-04T12:05:27.096Z,27.50
2022-09-04T12:07:44.408Z,27.30
2022-09-04T12:10:01.538Z,27.28
2022-09-04T12:12:18.774Z,27.28
2022-09-04T12:14:36.043Z,27.23
2022-09-04T12:16:53.135Z,27.03
2022-09-04T12:19:11.157Z,26.96
2022-09-04T12:21:29.105Z,27.00
2022-09-04T12:23:46.040Z,26.88
2022-09-04T12:26:02.906Z,26.82
2022-09-04T12:28:19.922Z,26.78
2022-09-04T12:30:37.367Z,26.51
2022-09-04T12:32:55.627Z,26.42
2022-09-04T12:35:12.893Z,26.38
2022-09-04T12:37:32.001Z,26.31
2022-09-04T12:39:49.082Z,26.33
2022-09-04T12:42:06.151Z,26.18
2022-09-04T12:44:23.266Z,26.10
2022-09-04T12:46:40.405Z,26.15
2022-09-04T12:48:57.440Z,26.07
2022-09-04T12:51:14.685Z,26.06
2022-09-04T12:53:32.792Z,26.00
2022-09-04T12:55:49.844Z,26.01
2022-09-04T12:58:07.134Z,25.88
2022-09-04T13:00:24.177Z,25.96
2022-09-04T13:02:41.275Z,26.07
2022-09-04T13:04:58.674Z,26.43
2022-09-04T13:07:16.510Z,26.87
2022-09-04T13:09:33.939Z,27.27
2022-09-04T13:11:51.217Z,27.61
2022-09-04T13:14:08.161Z,27.87
2022-09-04T13:16:26.308Z,28.03
2022-09-04T13:18:43.593Z,28.25
2022-09-04T13:21:01.660Z,28.54
2022-09-04T13:23:18.674Z,28.83
2022-09-04T13:25:36.027Z,28.87
2022-09-04T13:27:53.019Z,28.99
2022-09-04T13:30:10.327Z,29.06
2022-09-04T13:32:27.596Z,28.99
2022-09-04T13:34:44.592Z,28.60
2022-09-04T13:37:01.680Z,28.64
2022-09-04T13:39:18.727Z,28.59
2022-09-04T13:41:36.044Z,28.54
2022-09-04T13:43:53.109Z,27.74
2022-09-04T13:46:10.121Z,27.59
2022-09-04T13:48:27.424Z,27.41
2022-09-04T13:50:44.388Z,27.48
2022-09-04T13:53:01.370Z,27.59
2022-09-04T13:55:18.646Z,27.54
2022-09-04T13:57:35.628Z,27.55
2022-09-04T13:59:52.952Z,27.42
2022-09-04T14:02:11.012Z,27.28
2022-09-04T14:04:28.281Z,26.99
2022-09-04T14:06:45.413Z,27.08
2022-09-04T14:09:05.493Z,27.12
2022-09-04T14:11:23.236Z,27.00
2022-09-04T14:13:40.274Z,26.84
2022-09-04T14:15:57.656Z,26.90
2022-09-04T14:18:14.616Z,27.05
2022-09-04T14:20:31.638Z,27.27
2022-09-04T14:22:48.631Z,27.38
2022-09-04T14:25:11.863Z,27.43
2022-09-04T14:27:31.649Z,27.20
2022-09-04T14:29:48.879Z,27.08
2022-09-04T14:32:06.188Z,26.89
2022-09-04T14:34:23.358Z,26.74
2022-09-04T14:36:40.675Z,26.65
2022-09-04T14:38:57.641Z,26.50
2022-09-04T14:41:14.920Z,26.36
2022-09-04T14:43:33.201Z,26.25
2022-09-04T14:45:50.468Z,26.10
2022-09-04T14:48:07.441Z,25.90
2022-09-04T14:50:24.436Z,25.75
2022-09-04T14:52:41.744Z,25.58
2022-09-04T14:54:58.673Z,25.48
2022-09-04T14:57:15.923Z,25.39
2022-09-04T14:59:33.229Z,25.27
2022-09-04T15:01:50.379Z,25.17
2022-09-04T15:04:08.874Z,25.06
2022-09-04T15:06:29.048Z,24.93
2022-09-04T15:08:48.471Z,24.87
2022-09-04T15:11:05.436Z,24.77
2022-09-04T15:13:23.766Z,24.69
2022-09-04T15:15:41.947Z,24.68
2022-09-04T15:17:59.249Z,24.78
2022-09-04T15:20:17.385Z,24.99
2022-09-04T15:22:35.632Z,25.27
2022-09-04T15:24:52.735Z,25.60
2022-09-04T15:27:09.640Z,25.93
2022-09-04T15:29:26.775Z,26.20
2022-09-04T15:31:43.917Z,26.45
2022-09-04T15:34:01.209Z,26.72
2022-09-04T15:36:18.165Z,26.96
2022-09-04T15:38:35.476Z,27.10
2022-09-04T15:41:15.089Z,27.19
2022-09-04T15:43:31.545Z,27.33
2022-09-04T15:45:48.588Z,27.42
2022-09-04T15:48:06.675Z,27.43
2022-09-04T15:50:23.680Z,27.39
2022-09-04T15:52:41.001Z,27.44
2022-09-04T15:54:58.225Z,27.36
2022-09-04T15:57:15.194Z,27.44
2022-09-04T15:59:33.456Z,27.42
2022-09-04T16:01:50.756Z,27.44
2022-09-04T16:04:07.740Z,27.43
2022-09-04T16:06:24.774Z,27.45
2022-09-04T16:08:41.833Z,27.40
2022-09-04T16:10:59.897Z,27.37
2022-09-04T16:13:18.369Z,27.32
2022-09-04T16:15:35.365Z,27.39
2022-09-04T16:17:52.408Z,27.19
2022-09-04T16:20:09.414Z,27.20
2022-09-04T16:22:27.505Z,27.20
2022-09-04T16:24:44.429Z,27.15
2022-09-04T16:27:01.736Z,27.12
2022-09-04T16:29:21.207Z,27.11
2022-09-04T16:31:41.341Z,27.03
2022-09-04T16:33:59.692Z,27.04
2022-09-04T16:36:17.668Z,26.96
2022-09-04T16:38:37.034Z,26.95
2022-09-04T16:40:54.113Z,26.58
2022-09-04T16:43:11.434Z,26.40
2022-09-04T16:45:28.374Z,26.28
2022-09-04T16:47:46.280Z,26.02
2022-09-04T16:50:03.292Z,25.85
2022-09-04T16:52:20.597Z,25.71
2022-09-04T16:54:38.557Z,25.51
2022-09-04T16:57:12.097Z,25.36
2022-09-04T16:59:30.578Z,25.22
2022-09-04T17:01:47.767Z,25.09
2022-09-04T17:04:12.685Z,24.95
2022-09-04T17:06:30.992Z,24.89
2022-09-04T17:08:48.305Z,24.68
2022-09-04T17:11:05.366Z,24.48
2022-09-04T17:13:27.959Z,24.23
2022-09-04T17:15:53.340Z,24.08
2022-09-04T17:18:11.318Z,23.83
2022-09-04T17:20:50.295Z,23.64
2022-09-04T17:29:03.251Z,23.44
2022-09-04T17:29:11.309Z,23.14
2022-09-04T17:29:15.595Z,22.93
2022-09-04T17:30:56.461Z,22.74
2022-09-04T17:40:36.139Z,22.55
2022-09-04T17:40:38.802Z,22.35
2022-09-04T17:40:48.847Z,22.20
2022-09-04T17:41:38.243Z,22.03
2022-09-04T17:43:41.567Z,21.98
2022-09-04T17:45:58.586Z,21.88
2022-09-04T17:48:16.891Z,21.79
2022-09-04T17:50:33.979Z,21.69
2022-09-04T17:52:51.062Z,21.61
2022-09-04T17:55:08.106Z,21.50
2022-09-04T17:57:26.102Z,21.40
2022-09-04T17:59:45.697Z,21.26
2022-09-04T18:02:03.095Z,21.15
2022-09-04T18:04:22.396Z,21.07
2022-09-04T18:06:40.043Z,21.00
2022-09-04T18:08:57.343Z,20.95
2022-09-04T18:11:14.321Z,20.87
2022-09-04T18:13:37.906Z,20.78
2022-09-04T18:15:55.427Z,20.68
2022-09-04T18:18:12.657Z,20.59
2022-09-04T18:20:29.757Z,20.52
2022-09-04T18:22:46.835Z,20.40
2022-09-04T18:25:16.229Z,20.31
2022-09-04T18:27:34.748Z,20.25
2022-09-04T18:32:01.859Z,20.17
2022-09-04T18:37:09.264Z,20.08
2022-09-04T18:37:20.593Z,20.00
2022-09-04T18:37:47.433Z,19.91
2022-09-04T18:40:04.891Z,19.86
2022-09-04T18:50:20.282Z,19.80
2022-09-04T18:50:48.965Z,19.59
2022-09-04T18:50:50.872Z,19.68
2022-09-04T18:50:53.391Z,19.76
2022-09-04T18:52:51.161Z,19.48
2022-09-04T18:55:08.126Z,19.41
2022-09-04T18:57:25.071Z,19.34
2022-09-04T18:59:42.139Z,19.26
2022-09-04T19:01:59.700Z,19.24
2022-09-04T19:04:18.991Z,19.18
2022-09-04T19:06:37.605Z,19.12
2022-09-04T19:08:54.565Z,19.10
2022-09-04T19:11:20.541Z,19.03
2022-09-04T19:13:38.509Z,18.92
2022-09-04T19:15:55.774Z,18.85
2022-09-04T19:18:14.130Z,18.81
2022-09-04T19:20:31.325Z,18.76
2022-09-04T19:22:53.992Z,18.72
2022-09-04T19:25:12.927Z,18.66
2022-09-04T19:27:30.013Z,18.58
2022-09-04T19:29:47.165Z,18.50
2022-09-04T19:32:04.206Z,18.46
2022-09-04T19:34:21.387Z,18.40
2022-09-04T19:36:38.649Z,18.32
2022-09-04T19:46:00.511Z,18.21
2022-09-04T19:46:02.918Z,18.27
2022-09-04T19:46:08.504Z,18.15
2022-09-04T19:46:48.850Z,18.10
2022-09-04T19:50:57.094Z,18.01
2022-09-04T19:53:32.178Z,17.95
2022-09-04T19:54:20.410Z,17.92
2022-09-04T19:57:32.973Z,17.85
2022-09-04T19:59:14.786Z,17.76
2022-09-04T20:01:33.232Z,17.72
2022-09-04T20:03:50.589Z,17.69
2022-09-04T20:06:20.049Z,17.69
2022-09-04T20:08:38.553Z,17.65
2022-09-04T20:10:55.849Z,17.58
2022-09-04T20:13:13.118Z,17.54
2022-09-04T20:15:31.883Z,17.47
2022-09-04T20:17:50.153Z,17.41
2022-09-04T20:20:07.123Z,17.33
2022-09-04T20:22:24.001Z,17.27
2022-09-04T20:24:42.228Z,17.23
2022-09-04T20:27:20.876Z,17.21
2022-09-04T20:29:37.927Z,17.13
2022-09-04T20:31:55.015Z,17.08
2022-09-04T20:34:12.336Z,17.05
2022-09-04T20:36:30.305Z,17.04
2022-09-04T20:38:47.376Z,16.98
2022-09-04T20:41:04.471Z,16.93
2022-09-04T20:43:21.848Z,16.86
2022-09-04T20:48:17.363Z,16.81
2022-09-04T20:52:49.773Z,16.77
2022-09-04T20:52:56.685Z,16.74
2022-09-04T20:53:30.821Z,16.68
2022-09-04T20:55:47.999Z,16.66
2022-09-04T21:03:06.681Z,16.63
2022-09-04T21:03:20.214Z,16.62
2022-09-04T21:03:34.754Z,16.59
2022-09-04T21:05:56.361Z,16.59
2022-09-04T21:08:24.402Z,16.52
2022-09-04T21:10:44.141Z,16.46
2022-09-04T21:13:22.783Z,16.41
2022-09-04T21:15:39.006Z,16.34
2022-09-04T21:17:56.052Z,16.29
2022-09-04T21:20:13.027Z,16.23
2022-09-04T21:22:32.870Z,16.22
2022-09-04T21:24:50.667Z,16.24
2022-09-04T21:27:07.993Z,16.19
2022-09-04T21:29:26.322Z,16.12
2022-09-04T21:31:44.354Z,16.09
2022-09-04T21:34:02.174Z,16.08
2022-09-04T21:36:26.025Z,16.00
2022-09-04T21:38:44.292Z,15.95
2022-09-04T21:41:02.575Z,15.92
2022-09-04T21:43:19.719Z,15.90
2022-09-04T21:45:36.758Z,15.87
2022-09-04T21:47:53.926Z,15.84
2022-09-04T21:50:13.206Z,15.82
2022-09-04T21:52:30.698Z,15.80
2022-09-04T21:57:17.626Z,15.80
2022-09-04T22:02:32.208Z,15.75
2022-09-04T22:02:37.796Z,15.72
2022-09-04T22:02:59.636Z,15.65
2022-09-04T22:05:17.337Z,15.63
2022-09-04T22:12:24.401Z,15.58
2022-09-04T22:13:30.217Z,15.53
2022-09-04T22:13:41.992Z,15.49
2022-09-04T22:15:29.312Z,15.46
2022-09-04T22:17:46.558Z,15.45
2022-09-04T22:20:04.117Z,15.40
2022-09-04T22:22:21.442Z,15.38
2022-09-04T22:24:41.067Z,15.37
2022-09-04T22:26:58.545Z,15.30
2022-09-04T22:29:15.601Z,15.27
2022-09-04T22:31:32.975Z,15.22
2022-09-04T22:34:15.040Z,15.18
2022-09-04T22:36:26.957Z,15.17
2022-09-04T22:38:44.940Z,15.14
2022-09-04T22:41:02.831Z,15.08
2022-09-04T22:43:20.176Z,15.06
2022-09-04T22:45:37.240Z,15.06
2022-09-04T22:47:54.271Z,15.03
2022-09-04T22:50:11.539Z,15.00
2022-09-04T22:52:28.787Z,14.99
2022-09-04T22:54:45.741Z,14.97
2022-09-04T22:57:02.632Z,14.91
2022-09-04T22:59:26.344Z,14.87
2022-09-04T23:01:44.842Z,14.83
2022-09-04T23:04:02.007Z,14.78
2022-09-04T23:08:05.759Z,14.76
2022-09-04T23:13:49.616Z,14.69
2022-09-04T23:13:50.645Z,14.76
2022-09-04T23:14:14.652Z,14.68
2022-09-04T23:16:34.803Z,14.65
2022-09-04T23:22:56.578Z,14.65
2022-09-04T23:26:32.772Z,14.68
2022-09-04T23:26:44.828Z,14.65
2022-09-04T23:27:01.490Z,14.61
2022-09-04T23:29:19.365Z,14.61
2022-09-04T23:31:38.828Z,14.55
2022-09-04T23:33:56.122Z,14.50
2022-09-04T23:36:13.451Z,14.44
2022-09-04T23:38:30.490Z,14.40
2022-09-04T23:40:47.797Z,14.35
2022-09-04T23:43:07.459Z,14.32
2022-09-04T23:45:24.733Z,14.29
2022-09-04T23:47:47.967Z,14.28
2022-09-04T23:50:06.444Z,14.25
2022-09-04T23:52:27.103Z,14.24
2022-09-04T23:54:44.346Z,14.22
2022-09-04T23:57:01.275Z,14.20
2022-09-04T23:59:33.859Z,14.18
